sensor_id;sensor_type;location;lat;lon;timestamp;pressure;altitude;pressure_sealevel;temperature;humidity
84289;BME280;75147;50.294;18.660;2024-03-17T00:01:33;99398.19;;;6.28;90.48
84289;BME280;75147;50.294;18.660;2024-03-17T00:03:58;99381.97;;;6.26;89.80
84289;BME280;75147;50.294;18.660;2024-03-17T00:06:24;99380.47;;;6.22;89.90
84289;BME280;75147;50.294;18.660;2024-03-17T00:08:49;99401.19;;;6.21;89.99
84289;BME280;75147;50.294;18.660;2024-03-17T00:11:15;99379.16;;;6.15;90.42
84289;BME280;75147;50.294;18.660;2024-03-17T00:13:41;99383.50;;;6.15;90.34
84289;BME280;75147;50.294;18.660;2024-03-17T00:16:06;99391.59;;;6.09;90.54
84289;BME280;75147;50.294;18.660;2024-03-17T00:18:32;99393.47;;;6.05;91.11
84289;BME280;75147;50.294;18.660;2024-03-17T00:20:57;99397.81;;;6.05;91.02
84289;BME280;75147;50.294;18.660;2024-03-17T00:23:24;99395.22;;;6.05;90.52
84289;BME280;75147;50.294;18.660;2024-03-17T00:25:49;99401.41;;;6.02;90.83
84289;BME280;75147;50.294;18.660;2024-03-17T00:28:16;99406.56;;;6.02;90.97
84289;BME280;75147;50.294;18.660;2024-03-17T00:30:41;99407.47;;;6.01;90.12
84289;BME280;75147;50.294;18.660;2024-03-17T00:33:07;99410.97;;;6.00;90.14
84289;BME280;75147;50.294;18.660;2024-03-17T00:35:32;99406.66;;;6.00;90.83
84289;BME280;75147;50.294;18.660;2024-03-17T00:37:58;99405.81;;;6.00;90.26
84289;BME280;75147;50.294;18.660;2024-03-17T00:40:23;99419.63;;;5.99;90.38
84289;BME280;75147;50.294;18.660;2024-03-17T00:42:49;99408.56;;;5.97;89.25
84289;BME280;75147;50.294;18.660;2024-03-17T00:45:15;99408.66;;;5.95;88.80
84289;BME280;75147;50.294;18.660;2024-03-17T00:47:40;99407.91;;;5.93;88.56
84289;BME280;75147;50.294;18.660;2024-03-17T00:50:06;99407.97;;;5.92;88.00
84289;BME280;75147;50.294;18.660;2024-03-17T00:52:33;99416.53;;;5.92;88.04
84289;BME280;75147;50.294;18.660;2024-03-17T00:54:59;99416.03;;;5.86;87.92
84289;BME280;75147;50.294;18.660;2024-03-17T00:57:24;99426.13;;;5.90;88.18
84289;BME280;75147;50.294;18.660;2024-03-17T00:59:50;99428.88;;;5.87;88.37
84289;BME280;75147;50.294;18.660;2024-03-17T01:02:17;99432.31;;;5.86;88.13
84289;BME280;75147;50.294;18.660;2024-03-17T01:04:43;99428.19;;;5.84;88.03
84289;BME280;75147;50.294;18.660;2024-03-17T01:07:11;99435.09;;;5.83;87.54
84289;BME280;75147;50.294;18.660;2024-03-17T01:09:37;99436.06;;;5.81;87.23
84289;BME280;75147;50.294;18.660;2024-03-17T01:12:03;99442.06;;;5.81;87.58
84289;BME280;75147;50.294;18.660;2024-03-17T01:14:29;99438.66;;;5.81;87.00
84289;BME280;75147;50.294;18.660;2024-03-17T01:16:56;99447.38;;;5.78;86.71
84289;BME280;75147;50.294;18.660;2024-03-17T01:19:22;99440.56;;;5.77;87.32
84289;BME280;75147;50.294;18.660;2024-03-17T01:21:48;99447.47;;;5.77;87.54
84289;BME280;75147;50.294;18.660;2024-03-17T01:24:13;99441.56;;;5.75;87.09
84289;BME280;75147;50.294;18.660;2024-03-17T01:26:39;99433.97;;;5.72;87.03
84289;BME280;75147;50.294;18.660;2024-03-17T01:29:04;99441.00;;;5.70;86.61
84289;BME280;75147;50.294;18.660;2024-03-17T01:31:30;99439.31;;;5.69;87.61
84289;BME280;75147;50.294;18.660;2024-03-17T01:33:55;99442.16;;;5.64;87.50
84289;BME280;75147;50.294;18.660;2024-03-17T01:36:21;99437.81;;;5.65;87.61
84289;BME280;75147;50.294;18.660;2024-03-17T01:38:46;99437.00;;;5.64;88.28
84289;BME280;75147;50.294;18.660;2024-03-17T01:41:11;99439.81;;;5.59;87.73
84289;BME280;75147;50.294;18.660;2024-03-17T01:43:38;99434.72;;;5.58;88.08
84289;BME280;75147;50.294;18.660;2024-03-17T01:46:04;99467.56;;;5.54;87.58
84289;BME280;75147;50.294;18.660;2024-03-17T01:48:29;99445.38;;;5.52;87.00
84289;BME280;75147;50.294;18.660;2024-03-17T01:50:56;99453.28;;;5.49;86.05
84289;BME280;75147;50.294;18.660;2024-03-17T01:53:22;99457.72;;;5.45;85.78
84289;BME280;75147;50.294;18.660;2024-03-17T01:55:55;99456.25;;;5.41;85.57
84289;BME280;75147;50.294;18.660;2024-03-17T01:58:24;99456.31;;;5.40;84.68
84289;BME280;75147;50.294;18.660;2024-03-17T02:00:50;99451.41;;;5.35;84.63
84289;BME280;75147;50.294;18.660;2024-03-17T02:03:17;99456.72;;;5.32;84.60
84289;BME280;75147;50.294;18.660;2024-03-17T02:05:43;99455.97;;;5.30;84.28
84289;BME280;75147;50.294;18.660;2024-03-17T02:08:10;99450.06;;;5.28;83.41
84289;BME280;75147;50.294;18.660;2024-03-17T02:10:37;99450.22;;;5.25;83.02
84289;BME280;75147;50.294;18.660;2024-03-17T02:13:03;99461.59;;;5.21;82.83
84289;BME280;75147;50.294;18.660;2024-03-17T02:15:29;99460.84;;;5.19;82.58
84289;BME280;75147;50.294;18.660;2024-03-17T02:17:55;99461.00;;;5.16;82.68
84289;BME280;75147;50.294;18.660;2024-03-17T02:20:20;99462.75;;;5.15;82.99
84289;BME280;75147;50.294;18.660;2024-03-17T02:22:50;99457.91;;;5.09;83.39
84289;BME280;75147;50.294;18.660;2024-03-17T02:25:15;99446.84;;;5.07;83.41
84289;BME280;75147;50.294;18.660;2024-03-17T02:27:40;99461.78;;;5.01;83.91
84289;BME280;75147;50.294;18.660;2024-03-17T02:30:06;99466.34;;;4.96;83.14
84289;BME280;75147;50.294;18.660;2024-03-17T02:32:37;99472.47;;;4.93;83.74
84289;BME280;75147;50.294;18.660;2024-03-17T02:35:03;99463.25;;;4.89;83.71
84289;BME280;75147;50.294;18.660;2024-03-17T02:37:30;99478.03;;;4.86;84.16
84289;BME280;75147;50.294;18.660;2024-03-17T02:39:55;99467.22;;;4.79;82.70
84289;BME280;75147;50.294;18.660;2024-03-17T02:42:21;99469.16;;;4.74;83.09
84289;BME280;75147;50.294;18.660;2024-03-17T02:44:46;99464.25;;;4.69;82.90
84289;BME280;75147;50.294;18.660;2024-03-17T02:47:11;99480.75;;;4.65;83.88
84289;BME280;75147;50.294;18.660;2024-03-17T02:49:40;99490.53;;;4.59;82.84
84289;BME280;75147;50.294;18.660;2024-03-17T02:52:10;99482.88;;;4.57;82.76
84289;BME280;75147;50.294;18.660;2024-03-17T02:54:37;99487.47;;;4.51;82.41
84289;BME280;75147;50.294;18.660;2024-03-17T02:57:03;99497.06;;;4.47;82.35
84289;BME280;75147;50.294;18.660;2024-03-17T02:59:29;99491.19;;;4.45;82.50
84289;BME280;75147;50.294;18.660;2024-03-17T03:01:54;99501.59;;;4.42;82.72
84289;BME280;75147;50.294;18.660;2024-03-17T03:04:20;99490.66;;;4.38;82.67
84289;BME280;75147;50.294;18.660;2024-03-17T03:06:45;99496.81;;;4.34;82.99
84289;BME280;75147;50.294;18.660;2024-03-17T03:09:11;99502.97;;;4.32;83.35
84289;BME280;75147;50.294;18.660;2024-03-17T03:11:41;99500.53;;;4.29;83.62
84289;BME280;75147;50.294;18.660;2024-03-17T03:14:09;99503.25;;;4.26;84.38
84289;BME280;75147;50.294;18.660;2024-03-17T03:16:34;99511.16;;;4.21;83.66
84289;BME280;75147;50.294;18.660;2024-03-17T03:19:00;99504.56;;;4.16;82.97
84289;BME280;75147;50.294;18.660;2024-03-17T03:21:25;99511.53;;;4.14;82.52
84289;BME280;75147;50.294;18.660;2024-03-17T03:23:51;99509.09;;;4.11;82.99
84289;BME280;75147;50.294;18.660;2024-03-17T03:26:17;99515.16;;;4.10;83.21
84289;BME280;75147;50.294;18.660;2024-03-17T03:28:43;99508.50;;;4.06;83.09
84289;BME280;75147;50.294;18.660;2024-03-17T03:31:13;99523.22;;;4.02;83.26
84289;BME280;75147;50.294;18.660;2024-03-17T03:33:41;99531.81;;;4.01;83.54
84289;BME280;75147;50.294;18.660;2024-03-17T03:36:08;99533.72;;;3.97;83.54
84289;BME280;75147;50.294;18.660;2024-03-17T03:38:34;99533.84;;;3.94;83.49
84289;BME280;75147;50.294;18.660;2024-03-17T03:41:09;99539.91;;;3.93;83.69
84289;BME280;75147;50.294;18.660;2024-03-17T03:43:35;99549.41;;;3.91;84.27
84289;BME280;75147;50.294;18.660;2024-03-17T03:46:01;99553.00;;;3.87;83.63
84289;BME280;75147;50.294;18.660;2024-03-17T03:48:27;99541.91;;;3.87;83.63
84289;BME280;75147;50.294;18.660;2024-03-17T03:50:52;99546.22;;;3.86;83.96
84289;BME280;75147;50.294;18.660;2024-03-17T03:53:19;99548.91;;;3.83;84.10
84289;BME280;75147;50.294;18.660;2024-03-17T03:55:45;99547.25;;;3.82;84.25
84289;BME280;75147;50.294;18.660;2024-03-17T03:58:10;99548.97;;;3.82;84.70
84289;BME280;75147;50.294;18.660;2024-03-17T04:00:38;99551.53;;;3.82;85.06
84289;BME280;75147;50.294;18.660;2024-03-17T04:03:04;99559.34;;;3.80;85.25
84289;BME280;75147;50.294;18.660;2024-03-17T04:05:30;99559.41;;;3.79;85.35
84289;BME280;75147;50.294;18.660;2024-03-17T04:07:56;99567.19;;;3.77;85.74
84289;BME280;75147;50.294;18.660;2024-03-17T04:10:21;99569.88;;;3.74;85.24
84289;BME280;75147;50.294;18.660;2024-03-17T04:12:47;99563.09;;;3.73;85.26
84289;BME280;75147;50.294;18.660;2024-03-17T04:15:13;99560.56;;;3.72;85.36
84289;BME280;75147;50.294;18.660;2024-03-17T04:17:39;99572.59;;;3.71;85.45
84289;BME280;75147;50.294;18.660;2024-03-17T04:20:05;99563.19;;;3.70;85.77
84289;BME280;75147;50.294;18.660;2024-03-17T04:22:33;99573.41;;;3.72;86.24
84289;BME280;75147;50.294;18.660;2024-03-17T04:24:59;99576.03;;;3.70;86.64
84289;BME280;75147;50.294;18.660;2024-03-17T04:27:25;99573.53;;;3.69;86.36
84289;BME280;75147;50.294;18.660;2024-03-17T04:29:52;99573.69;;;3.66;86.56
84289;BME280;75147;50.294;18.660;2024-03-17T04:32:17;99571.19;;;3.64;86.69
84289;BME280;75147;50.294;18.660;2024-03-17T04:34:43;99575.53;;;3.62;86.83
84289;BME280;75147;50.294;18.660;2024-03-17T04:37:11;99579.94;;;3.60;86.29
84289;BME280;75147;50.294;18.660;2024-03-17T04:39:40;99586.88;;;3.58;86.50
84289;BME280;75147;50.294;18.660;2024-03-17T04:42:08;99590.38;;;3.55;86.13
84289;BME280;75147;50.294;18.660;2024-03-17T04:44:34;99593.03;;;3.54;86.22
84289;BME280;75147;50.294;18.660;2024-03-17T04:46:59;99587.97;;;3.52;86.07
84289;BME280;75147;50.294;18.660;2024-03-17T04:49:24;99593.16;;;3.51;86.30
84289;BME280;75147;50.294;18.660;2024-03-17T04:51:50;99589.81;;;3.49;86.35
84289;BME280;75147;50.294;18.660;2024-03-17T04:54:15;99597.66;;;3.46;86.14
84289;BME280;75147;50.294;18.660;2024-03-17T04:56:41;99594.31;;;3.44;86.06
84289;BME280;75147;50.294;18.660;2024-03-17T04:59:06;99596.94;;;3.42;85.67
84289;BME280;75147;50.294;18.660;2024-03-17T05:01:32;99600.44;;;3.41;85.69
84289;BME280;75147;50.294;18.660;2024-03-17T05:04:02;99597.09;;;3.39;85.73
84289;BME280;75147;50.294;18.660;2024-03-17T05:06:28;99600.56;;;3.38;86.07
84289;BME280;75147;50.294;18.660;2024-03-17T05:08:53;99600.66;;;3.35;86.18
84289;BME280;75147;50.294;18.660;2024-03-17T05:11:19;99606.72;;;3.34;85.67
84289;BME280;75147;50.294;18.660;2024-03-17T05:13:45;99603.38;;;3.32;85.76
84289;BME280;75147;50.294;18.660;2024-03-17T05:16:10;99601.66;;;3.33;85.68
84289;BME280;75147;50.294;18.660;2024-03-17T05:18:36;99605.16;;;3.30;85.82
84289;BME280;75147;50.294;18.660;2024-03-17T05:21:05;99606.91;;;3.30;85.95
84289;BME280;75147;50.294;18.660;2024-03-17T05:23:33;99617.16;;;3.30;85.40
84289;BME280;75147;50.294;18.660;2024-03-17T05:25:59;99611.13;;;3.31;85.04
84289;BME280;75147;50.294;18.660;2024-03-17T05:28:26;99612.81;;;3.32;84.86
84289;BME280;75147;50.294;18.660;2024-03-17T05:30:52;99623.03;;;3.33;85.24
84289;BME280;75147;50.294;18.660;2024-03-17T05:33:18;99624.75;;;3.33;84.58
84289;BME280;75147;50.294;18.660;2024-03-17T05:35:55;99625.53;;;3.35;84.61
84289;BME280;75147;50.294;18.660;2024-03-17T05:38:27;99628.91;;;3.35;83.82
84289;BME280;75147;50.294;18.660;2024-03-17T05:41:00;99642.59;;;3.36;83.53
84289;BME280;75147;50.294;18.660;2024-03-17T05:43:27;99633.09;;;3.38;83.36
84289;BME280;75147;50.294;18.660;2024-03-17T05:45:54;99624.44;;;3.40;83.21
84289;BME280;75147;50.294;18.660;2024-03-17T05:48:20;99629.56;;;3.40;83.49
84289;BME280;75147;50.294;18.660;2024-03-17T05:50:46;99622.81;;;3.38;83.34
84289;BME280;75147;50.294;18.660;2024-03-17T05:53:11;99627.06;;;3.39;83.05
84289;BME280;75147;50.294;18.660;2024-03-17T05:55:37;99629.63;;;3.39;82.09
84289;BME280;75147;50.294;18.660;2024-03-17T05:58:03;99617.56;;;3.41;82.07
84289;BME280;75147;50.294;18.660;2024-03-17T06:00:29;99624.28;;;3.43;82.09
84289;BME280;75147;50.294;18.660;2024-03-17T06:02:56;99636.94;;;3.48;82.06
84289;BME280;75147;50.294;18.660;2024-03-17T06:05:21;99632.63;;;3.48;81.63
84289;BME280;75147;50.294;18.660;2024-03-17T06:07:46;99643.47;;;3.55;82.23
84289;BME280;75147;50.294;18.660;2024-03-17T06:10:12;99645.03;;;3.59;82.03
84289;BME280;75147;50.294;18.660;2024-03-17T06:12:38;99639.75;;;3.62;82.02
84289;BME280;75147;50.294;18.660;2024-03-17T06:15:03;99640.53;;;3.64;81.29
84289;BME280;75147;50.294;18.660;2024-03-17T06:17:29;99647.34;;;3.65;81.15
84289;BME280;75147;50.294;18.660;2024-03-17T06:19:54;99646.31;;;3.69;81.26
84289;BME280;75147;50.294;18.660;2024-03-17T06:22:20;99658.25;;;3.70;81.13
84289;BME280;75147;50.294;18.660;2024-03-17T06:24:45;99654.78;;;3.71;81.47
84289;BME280;75147;50.294;18.660;2024-03-17T06:27:11;99654.84;;;3.70;81.20
84289;BME280;75147;50.294;18.660;2024-03-17T06:29:36;99646.38;;;3.68;81.15
84289;BME280;75147;50.294;18.660;2024-03-17T06:32:01;99647.97;;;3.70;81.94
84289;BME280;75147;50.294;18.660;2024-03-17T06:34:27;99650.56;;;3.70;82.64
84289;BME280;75147;50.294;18.660;2024-03-17T06:36:52;99649.72;;;3.70;82.84
84289;BME280;75147;50.294;18.660;2024-03-17T06:39:18;99657.41;;;3.70;81.85
84289;BME280;75147;50.294;18.660;2024-03-17T06:41:45;99651.44;;;3.69;81.49
84289;BME280;75147;50.294;18.660;2024-03-17T06:44:10;99649.66;;;3.71;80.97
84289;BME280;75147;50.294;18.660;2024-03-17T06:46:36;99646.13;;;3.74;81.63
84289;BME280;75147;50.294;18.660;2024-03-17T06:49:01;99649.38;;;3.77;81.60
84289;BME280;75147;50.294;18.660;2024-03-17T06:51:26;99656.00;;;3.83;81.79
84289;BME280;75147;50.294;18.660;2024-03-17T06:53:52;99653.16;;;3.89;81.68
84289;BME280;75147;50.294;18.660;2024-03-17T06:56:17;99660.69;;;3.93;80.23
84289;BME280;75147;50.294;18.660;2024-03-17T06:58:43;99652.63;;;4.01;79.89
84289;BME280;75147;50.294;18.660;2024-03-17T07:01:09;99654.13;;;4.07;80.38
84289;BME280;75147;50.294;18.660;2024-03-17T07:03:34;99660.78;;;4.11;81.06
84289;BME280;75147;50.294;18.660;2024-03-17T07:06:01;99674.41;;;4.13;80.25
84289;BME280;75147;50.294;18.660;2024-03-17T07:08:29;99659.88;;;4.12;79.23
84289;BME280;75147;50.294;18.660;2024-03-17T07:11:05;99652.84;;;4.15;79.04
84289;BME280;75147;50.294;18.660;2024-03-17T07:13:36;99655.28;;;4.18;78.98
84289;BME280;75147;50.294;18.660;2024-03-17T07:16:02;99660.16;;;4.24;79.13
84289;BME280;75147;50.294;18.660;2024-03-17T07:18:29;99654.13;;;4.25;78.63
84289;BME280;75147;50.294;18.660;2024-03-17T07:21:02;99664.31;;;4.27;79.08
84289;BME280;75147;50.294;18.660;2024-03-17T07:23:29;99669.41;;;4.28;77.95
84289;BME280;75147;50.294;18.660;2024-03-17T07:25:56;99664.88;;;4.33;77.25
84289;BME280;75147;50.294;18.660;2024-03-17T07:28:23;99662.13;;;4.38;77.37
84289;BME280;75147;50.294;18.660;2024-03-17T07:30:50;99670.47;;;4.43;76.38
84289;BME280;75147;50.294;18.660;2024-03-17T07:33:15;99664.19;;;4.49;76.28
84289;BME280;75147;50.294;18.660;2024-03-17T07:35:54;99668.16;;;4.56;76.54
84289;BME280;75147;50.294;18.660;2024-03-17T07:38:22;99680.06;;;4.58;74.61
84289;BME280;75147;50.294;18.660;2024-03-17T07:41:04;99680.66;;;4.63;73.77
84289;BME280;75147;50.294;18.660;2024-03-17T07:43:37;99684.97;;;4.63;73.20
84289;BME280;75147;50.294;18.660;2024-03-17T07:46:10;99690.06;;;4.64;72.81
84289;BME280;75147;50.294;18.660;2024-03-17T07:48:41;99683.94;;;4.67;71.54
84289;BME280;75147;50.294;18.660;2024-03-17T07:51:08;99688.09;;;4.69;70.17
84289;BME280;75147;50.294;18.660;2024-03-17T07:53:36;99708.00;;;4.66;68.01
84289;BME280;75147;50.294;18.660;2024-03-17T07:56:15;99689.22;;;4.64;67.04
84289;BME280;75147;50.294;18.660;2024-03-17T07:58:42;99689.06;;;4.67;67.89
84289;BME280;75147;50.294;18.660;2024-03-17T08:01:15;99691.63;;;4.67;66.49
84289;BME280;75147;50.294;18.660;2024-03-17T08:03:44;99691.44;;;4.71;67.94
84289;BME280;75147;50.294;18.660;2024-03-17T08:06:10;99685.41;;;4.72;69.52
84289;BME280;75147;50.294;18.660;2024-03-17T08:08:38;99679.97;;;4.78;69.67
84289;BME280;75147;50.294;18.660;2024-03-17T08:11:03;99681.47;;;4.82;70.71
84289;BME280;75147;50.294;18.660;2024-03-17T08:13:32;99679.31;;;4.92;71.57
84289;BME280;75147;50.294;18.660;2024-03-17T08:16:06;99674.03;;;4.95;69.60
84289;BME280;75147;50.294;18.660;2024-03-17T08:18:32;99667.00;;;4.99;70.12
84289;BME280;75147;50.294;18.660;2024-03-17T08:21:00;99668.44;;;5.04;69.41
84289;BME280;75147;50.294;18.660;2024-03-17T08:23:36;99661.31;;;5.09;71.08
84289;BME280;75147;50.294;18.660;2024-03-17T08:26:27;99669.59;;;5.16;71.04
84289;BME280;75147;50.294;18.660;2024-03-17T08:29:07;99669.44;;;5.19;68.75
84289;BME280;75147;50.294;18.660;2024-03-17T08:31:34;99663.66;;;5.14;68.23
84289;BME280;75147;50.294;18.660;2024-03-17T08:34:00;99668.69;;;5.17;68.09
84289;BME280;75147;50.294;18.660;2024-03-17T08:36:25;99663.53;;;5.17;69.59
84289;BME280;75147;50.294;18.660;2024-03-17T08:39:00;99667.84;;;5.16;68.49
84289;BME280;75147;50.294;18.660;2024-03-17T08:41:27;99655.66;;;5.20;67.01
84289;BME280;75147;50.294;18.660;2024-03-17T08:43:52;99655.34;;;5.26;66.98
84289;BME280;75147;50.294;18.660;2024-03-17T08:46:18;99652.63;;;5.29;63.26
84289;BME280;75147;50.294;18.660;2024-03-17T08:48:44;99650.28;;;5.42;65.42
84289;BME280;75147;50.294;18.660;2024-03-17T08:51:09;99654.91;;;5.52;65.59
84289;BME280;75147;50.294;18.660;2024-03-17T08:53:36;99651.94;;;5.60;64.40
84289;BME280;75147;50.294;18.660;2024-03-17T08:56:04;99649.22;;;5.63;64.94
84289;BME280;75147;50.294;18.660;2024-03-17T08:58:31;99648.13;;;5.67;63.64
84289;BME280;75147;50.294;18.660;2024-03-17T09:00:56;99662.47;;;5.73;63.23
84289;BME280;75147;50.294;18.660;2024-03-17T09:03:22;99649.44;;;5.76;64.47
84289;BME280;75147;50.294;18.660;2024-03-17T09:05:48;99650.25;;;5.76;64.66
84289;BME280;75147;50.294;18.660;2024-03-17T09:08:18;99653.69;;;5.77;62.20
84289;BME280;75147;50.294;18.660;2024-03-17T09:10:46;99650.25;;;5.76;62.35
84289;BME280;75147;50.294;18.660;2024-03-17T09:13:19;99659.75;;;5.76;63.21
84289;BME280;75147;50.294;18.660;2024-03-17T09:15:56;99648.53;;;5.77;63.39
84289;BME280;75147;50.294;18.660;2024-03-17T09:18:23;99645.19;;;5.75;65.13
84289;BME280;75147;50.294;18.660;2024-03-17T09:21:02;99635.94;;;5.71;63.67
84289;BME280;75147;50.294;18.660;2024-03-17T09:23:28;99659.44;;;5.65;63.32
84289;BME280;75147;50.294;18.660;2024-03-17T09:25:56;99651.16;;;5.58;62.92
84289;BME280;75147;50.294;18.660;2024-03-17T09:28:21;99658.22;;;5.54;62.30
84289;BME280;75147;50.294;18.660;2024-03-17T09:30:47;99638.47;;;5.55;60.86
84289;BME280;75147;50.294;18.660;2024-03-17T09:33:12;99643.31;;;5.61;62.93
84289;BME280;75147;50.294;18.660;2024-03-17T09:35:38;99644.81;;;5.65;63.53
84289;BME280;75147;50.294;18.660;2024-03-17T09:38:03;99650.97;;;5.63;62.44
84289;BME280;75147;50.294;18.660;2024-03-17T09:40:29;99665.66;;;5.60;62.43
84289;BME280;75147;50.294;18.660;2024-03-17T09:42:56;99648.53;;;5.59;63.57
84289;BME280;75147;50.294;18.660;2024-03-17T09:45:24;99655.34;;;5.60;61.88
84289;BME280;75147;50.294;18.660;2024-03-17T09:47:50;99641.50;;;5.63;61.37
84289;BME280;75147;50.294;18.660;2024-03-17T09:50:16;99643.81;;;5.68;59.66
84289;BME280;75147;50.294;18.660;2024-03-17T09:52:45;99649.44;;;5.76;59.85
84289;BME280;75147;50.294;18.660;2024-03-17T09:55:15;99650.25;;;5.93;60.29
84289;BME280;75147;50.294;18.660;2024-03-17T09:57:41;99638.38;;;6.07;61.42
84289;BME280;75147;50.294;18.660;2024-03-17T10:00:10;99632.06;;;6.12;61.72
84289;BME280;75147;50.294;18.660;2024-03-17T10:02:46;99639.34;;;6.21;62.52
84289;BME280;75147;50.294;18.660;2024-03-17T10:05:25;99651.47;;;6.19;59.63
84289;BME280;75147;50.294;18.660;2024-03-17T10:07:51;99642.47;;;6.11;59.86
84289;BME280;75147;50.294;18.660;2024-03-17T10:10:17;99628.84;;;6.09;59.64
84289;BME280;75147;50.294;18.660;2024-03-17T10:12:49;99632.00;;;6.14;59.08
84289;BME280;75147;50.294;18.660;2024-03-17T10:15:15;99623.59;;;6.26;60.97
84289;BME280;75147;50.294;18.660;2024-03-17T10:17:41;99631.84;;;6.32;62.22
84289;BME280;75147;50.294;18.660;2024-03-17T10:20:19;99634.28;;;6.35;59.62
84289;BME280;75147;50.294;18.660;2024-03-17T10:23:05;99635.00;;;6.37;62.48
84289;BME280;75147;50.294;18.660;2024-03-17T10:25:33;99628.84;;;6.40;61.85
84289;BME280;75147;50.294;18.660;2024-03-17T10:28:00;99637.94;;;6.47;61.94
84289;BME280;75147;50.294;18.660;2024-03-17T10:30:27;99636.69;;;6.54;60.34
84289;BME280;75147;50.294;18.660;2024-03-17T10:33:01;99630.19;;;6.63;63.07
84289;BME280;75147;50.294;18.660;2024-03-17T10:35:28;99630.19;;;6.63;58.22
84289;BME280;75147;50.294;18.660;2024-03-17T10:38:02;99620.38;;;6.69;60.76
84289;BME280;75147;50.294;18.660;2024-03-17T10:40:29;99607.97;;;6.76;60.05
84289;BME280;75147;50.294;18.660;2024-03-17T10:42:55;99608.25;;;6.86;56.95
84289;BME280;75147;50.294;18.660;2024-03-17T10:45:22;99607.84;;;6.93;55.17
84289;BME280;75147;50.294;18.660;2024-03-17T10:47:50;99606.13;;;7.08;58.46
84289;BME280;75147;50.294;18.660;2024-03-17T10:50:21;99614.38;;;7.14;58.92
84289;BME280;75147;50.294;18.660;2024-03-17T10:52:49;99612.88;;;7.10;58.84
84289;BME280;75147;50.294;18.660;2024-03-17T10:55:25;99607.06;;;7.07;56.49
84289;BME280;75147;50.294;18.660;2024-03-17T10:57:52;99615.16;;;7.01;56.09
84289;BME280;75147;50.294;18.660;2024-03-17T11:00:20;99611.16;;;6.95;58.04
84289;BME280;75147;50.294;18.660;2024-03-17T11:02:51;99606.34;;;6.89;57.09
84289;BME280;75147;50.294;18.660;2024-03-17T11:05:26;99606.50;;;6.86;59.13
84289;BME280;75147;50.294;18.660;2024-03-17T11:07:57;99598.69;;;6.88;55.78
84289;BME280;75147;50.294;18.660;2024-03-17T11:10:34;99608.66;;;6.94;58.22
84289;BME280;75147;50.294;18.660;2024-03-17T11:13:01;99595.69;;;6.95;58.23
84289;BME280;75147;50.294;18.660;2024-03-17T11:20:35;99588.91;;;7.22;58.01
84289;BME280;75147;50.294;18.660;2024-03-17T11:23:01;99600.03;;;7.39;59.83
84289;BME280;75147;50.294;18.660;2024-03-17T11:28:02;99576.59;;;7.56;57.76
84289;BME280;75147;50.294;18.660;2024-03-17T11:38:58;99579.38;;;7.53;52.92
84289;BME280;75147;50.294;18.660;2024-03-17T11:41:40;99568.00;;;7.55;56.68
84289;BME280;75147;50.294;18.660;2024-03-17T11:46:55;99557.19;;;7.49;52.06
84289;BME280;75147;50.294;18.660;2024-03-17T11:49:25;99554.97;;;7.43;50.75
84289;BME280;75147;50.294;18.660;2024-03-17T11:51:52;99544.84;;;7.40;50.29
84289;BME280;75147;50.294;18.660;2024-03-17T11:54:19;99541.13;;;7.44;51.25
84289;BME280;75147;50.294;18.660;2024-03-17T11:56:47;99551.78;;;7.53;50.93
84289;BME280;75147;50.294;18.660;2024-03-17T11:59:13;99543.56;;;7.61;52.08
84289;BME280;75147;50.294;18.660;2024-03-17T12:01:39;99532.84;;;7.67;50.77
84289;BME280;75147;50.294;18.660;2024-03-17T12:04:06;99539.78;;;7.81;51.89
84289;BME280;75147;50.294;18.660;2024-03-17T12:06:33;99543.53;;;7.89;53.34
84289;BME280;75147;50.294;18.660;2024-03-17T12:09:20;99541.84;;;7.88;52.61
84289;BME280;75147;50.294;18.660;2024-03-17T12:11:49;99541.97;;;7.87;54.31
84289;BME280;75147;50.294;18.660;2024-03-17T12:14:19;99528.22;;;7.86;53.53
84289;BME280;75147;50.294;18.660;2024-03-17T12:16:55;99551.38;;;7.88;53.63
84289;BME280;75147;50.294;18.660;2024-03-17T12:19:21;99549.06;;;7.83;51.01
84289;BME280;75147;50.294;18.660;2024-03-17T12:21:57;99531.06;;;7.82;50.92
84289;BME280;75147;50.294;18.660;2024-03-17T12:24:23;99540.47;;;7.83;51.93
84289;BME280;75147;50.294;18.660;2024-03-17T12:26:51;99528.47;;;7.82;50.75
84289;BME280;75147;50.294;18.660;2024-03-17T12:29:37;99535.22;;;7.84;50.68
84289;BME280;75147;50.294;18.660;2024-03-17T12:32:10;99547.25;;;7.85;50.91
84289;BME280;75147;50.294;18.660;2024-03-17T12:34:37;99530.44;;;7.78;51.01
84289;BME280;75147;50.294;18.660;2024-03-17T12:37:04;99527.75;;;7.80;52.06
84289;BME280;75147;50.294;18.660;2024-03-17T12:39:31;99522.47;;;7.81;50.45
84289;BME280;75147;50.294;18.660;2024-03-17T12:42:10;99520.25;;;7.89;51.33
84289;BME280;75147;50.294;18.660;2024-03-17T12:44:38;99513.16;;;7.93;50.51
84289;BME280;75147;50.294;18.660;2024-03-17T12:47:08;99499.53;;;8.04;48.86
84289;BME280;75147;50.294;18.660;2024-03-17T12:49:44;99511.16;;;8.11;51.45
84289;BME280;75147;50.294;18.660;2024-03-17T12:52:17;99506.81;;;8.11;51.62
84289;BME280;75147;50.294;18.660;2024-03-17T12:54:43;99497.88;;;8.02;51.36
84289;BME280;75147;50.294;18.660;2024-03-17T12:57:15;99512.94;;;7.96;50.60
84289;BME280;75147;50.294;18.660;2024-03-17T12:59:59;99505.28;;;7.94;51.16
84289;BME280;75147;50.294;18.660;2024-03-17T13:02:44;99501.88;;;7.94;52.25
84289;BME280;75147;50.294;18.660;2024-03-17T13:05:20;99500.94;;;7.95;49.95
84289;BME280;75147;50.294;18.660;2024-03-17T13:07:49;99521.84;;;7.92;50.50
84289;BME280;75147;50.294;18.660;2024-03-17T13:10:19;99501.22;;;7.90;50.62
84289;BME280;75147;50.294;18.660;2024-03-17T13:12:45;99497.34;;;7.83;50.80
84289;BME280;75147;50.294;18.660;2024-03-17T13:15:16;99508.81;;;7.79;51.21
84289;BME280;75147;50.294;18.660;2024-03-17T13:17:42;99501.25;;;7.76;50.62
84289;BME280;75147;50.294;18.660;2024-03-17T13:20:17;99494.53;;;7.74;50.79
84289;BME280;75147;50.294;18.660;2024-03-17T13:22:45;99488.22;;;7.78;52.25